Time;durP1;ratioP1;P1;durP2;ratioP2;P2;SDS_P1;SDS_P2;PMS_P1;PMS_P2;Temp;Humidity;BMP_temperature;BMP_pressure;BME280_temperature;BME280_humidity;BME280_pressure;Samples;Min_cycle;Max_cycle;Signal;HPM_P1;HPM_P2
2023/05/29 00:00:05;;;;;;;21.83;8.77;;;;;;;;;;5037974;28;20064;-65
2023/05/29 00:02:31;;;;;;;22.10;8.55;;;;;;;;;;5042953;28;20029;-63
2023/05/29 00:04:57;;;;;;;24.50;9.48;;;;;;;;;;5036726;28;20724;-64
2023/05/29 00:07:23;;;;;;;21.52;8.40;;;;;;;;;;5045074;28;20071;-64
2023/05/29 00:09:49;;;;;;;22.73;9.82;;;;;;;;;;5042295;28;20104;-64
2023/05/29 00:12:15;;;;;;;18.08;7.90;;;;;;;;;;5034917;28;20022;-64
2023/05/29 00:14:41;;;;;;;21.42;8.93;;;;;;;;;;5033413;28;20025;-65
2023/05/29 00:17:07;;;;;;;18.10;8.55;;;;;;;;;;5032836;28;20036;-65
2023/05/29 00:19:33;;;;;;;23.95;9.82;;;;;;;;;;5031949;28;20030;-63
2023/05/29 00:21:59;;;;;;;23.02;8.50;;;;;;;;;;5031805;28;20108;-64
2023/05/29 00:24:26;;;;;;;21.00;8.80;;;;;;;;;;5030897;28;20025;-64
2023/05/29 00:26:52;;;;;;;22.75;8.63;;;;;;;;;;5032580;28;20041;-66
2023/05/29 00:29:18;;;;;;;23.33;9.43;;;;;;;;;;5032265;28;20114;-64
2023/05/29 00:31:44;;;;;;;20.92;8.25;;;;;;;;;;5050237;22;20048;-61
2023/05/29 00:34:10;;;;;;;22.20;8.52;;;;;;;;;;5051305;28;20029;-61
2023/05/29 00:36:36;;;;;;;21.83;10.00;;;;;;;;;;5049533;28;20056;-62
2023/05/29 00:39:02;;;;;;;23.67;9.45;;;;;;;;;;5034729;28;20564;-61
2023/05/29 00:41:28;;;;;;;23.75;8.65;;;;;;;;;;5036998;28;20037;-62
2023/05/29 00:43:54;;;;;;;18.48;8.25;;;;;;;;;;5037778;28;20409;-62
2023/05/29 00:46:21;;;;;;;21.95;9.45;;;;;;;;;;5043918;28;20044;-61
2023/05/29 00:48:47;;;;;;;24.77;8.23;;;;;;;;;;5037832;28;20104;-60
2023/05/29 00:51:15;;;;;;;23.70;8.48;;;;;;;;;;5046760;28;20020;-62
2023/05/29 00:53:42;;;;;;;22.73;7.82;;;;;;;;;;5055125;28;20017;-62
2023/05/29 00:56:09;;;;;;;20.30;8.17;;;;;;;;;;5054416;28;20025;-61
2023/05/29 00:58:35;;;;;;;27.05;8.75;;;;;;;;;;5054839;28;20374;-61
2023/05/29 01:01:03;;;;;;;26.00;7.88;;;;;;;;;;5053599;28;20086;-64
2023/05/29 01:03:29;;;;;;;24.90;7.72;;;;;;;;;;5046096;28;20500;-63
2023/05/29 01:05:55;;;;;;;21.55;8.60;;;;;;;;;;5046507;28;20036;-63
2023/05/29 01:08:21;;;;;;;26.52;9.23;;;;;;;;;;5054955;28;20108;-62
2023/05/29 01:10:48;;;;;;;23.10;8.10;;;;;;;;;;5050290;28;20156;-63
2023/05/29 01:13:22;;;;;;;28.02;8.18;;;;;;;;;;5048645;28;20021;-62
2023/05/29 01:16:09;;;;;;;22.38;8.55;;;;;;;;;;5053975;28;20025;-61
2023/05/29 01:18:52;;;;;;;23.70;7.93;;;;;;;;;;5054971;28;20028;-62
2023/05/29 01:21:31;;;;;;;20.92;8.05;;;;;;;;;;5054832;28;20025;-62
2023/05/29 01:23:59;;;;;;;19.48;7.47;;;;;;;;;;5054221;28;20033;-63
2023/05/29 01:26:44;;;;;;;28.23;7.63;;;;;;;;;;5054645;28;20032;-63
2023/05/29 01:29:13;;;;;;;26.73;8.35;;;;;;;;;;5054611;28;20020;-62
2023/05/29 01:31:39;;;;;;;22.35;7.40;;;;;;;;;;5054279;28;20063;-62
2023/05/29 01:34:05;;;;;;;29.92;8.68;;;;;;;;;;5052603;28;20033;-62
2023/05/29 01:36:32;;;;;;;24.02;8.70;;;;;;;;;;5054320;28;20428;-60
2023/05/29 01:38:59;;;;;;;22.98;7.28;;;;;;;;;;5054459;28;20025;-62
2023/05/29 01:41:26;;;;;;;31.25;8.40;;;;;;;;;;5054291;28;20035;-63
2023/05/29 01:43:52;;;;;;;23.60;7.60;;;;;;;;;;5054030;28;20450;-63
2023/05/29 01:46:19;;;;;;;28.05;7.72;;;;;;;;;;5052496;28;20040;-62
2023/05/29 01:48:45;;;;;;;26.73;9.00;;;;;;;;;;5054227;28;20032;-62
2023/05/29 01:51:12;;;;;;;27.92;7.70;;;;;;;;;;5053252;28;20021;-62
2023/05/29 01:53:38;;;;;;;21.65;7.90;;;;;;;;;;5054154;28;20028;-60
2023/05/29 01:56:05;;;;;;;22.95;7.00;;;;;;;;;;5053339;28;20025;-63
2023/05/29 01:58:32;;;;;;;27.05;7.03;;;;;;;;;;5053890;28;20108;-60
2023/05/29 02:00:58;;;;;;;18.73;7.28;;;;;;;;;;5053711;28;20033;-63
2023/05/29 02:03:24;;;;;;;25.05;7.28;;;;;;;;;;5042511;28;20117;-63
2023/05/29 02:05:50;;;;;;;26.80;7.65;;;;;;;;;;5043233;28;20111;-63
2023/05/29 02:08:16;;;;;;;23.52;8.02;;;;;;;;;;5045505;28;20032;-62
2023/05/29 02:10:42;;;;;;;22.10;7.07;;;;;;;;;;5042506;28;20029;-62
2023/05/29 02:13:08;;;;;;;23.65;8.40;;;;;;;;;;5047462;28;20021;-63
2023/05/29 02:15:34;;;;;;;25.67;8.70;;;;;;;;;;5042220;28;20048;-62
2023/05/29 02:18:00;;;;;;;21.38;6.72;;;;;;;;;;5053668;28;20059;-62
2023/05/29 02:20:27;;;;;;;25.67;7.85;;;;;;;;;;5053706;28;20401;-62
2023/05/29 02:22:53;;;;;;;20.75;7.93;;;;;;;;;;5053456;28;20020;-62
2023/05/29 02:25:19;;;;;;;26.17;7.95;;;;;;;;;;5051384;28;20093;-63
2023/05/29 02:27:45;;;;;;;19.90;7.43;;;;;;;;;;5053424;28;20033;-63
2023/05/29 02:30:11;;;;;;;26.67;7.47;;;;;;;;;;5053437;28;20095;-62
2023/05/29 02:32:37;;;;;;;23.75;8.18;;;;;;;;;;5053184;28;20040;-62
2023/05/29 02:35:03;;;;;;;23.75;7.43;;;;;;;;;;5052695;28;20021;-63
2023/05/29 02:37:29;;;;;;;20.83;7.75;;;;;;;;;;5053186;28;20032;-63
2023/05/29 02:39:55;;;;;;;22.15;7.18;;;;;;;;;;5053044;28;20351;-62
2023/05/29 02:42:21;;;;;;;28.08;8.45;;;;;;;;;;5051743;28;20028;-63
2023/05/29 02:44:47;;;;;;;23.17;8.20;;;;;;;;;;5052245;28;20527;-62
2023/05/29 02:47:13;;;;;;;24.05;7.35;;;;;;;;;;5052748;28;20029;-63
2023/05/29 02:49:39;;;;;;;23.88;8.00;;;;;;;;;;5053206;28;20062;-63
2023/05/29 02:52:05;;;;;;;22.95;6.65;;;;;;;;;;5052869;28;20028;-63
2023/05/29 02:54:31;;;;;;;21.15;7.43;;;;;;;;;;5052077;28;20022;-63
2023/05/29 02:56:57;;;;;;;20.80;7.38;;;;;;;;;;5052890;28;20029;-61
2023/05/29 02:59:23;;;;;;;23.58;8.07;;;;;;;;;;5051657;28;20028;-61
2023/05/29 03:01:50;;;;;;;28.08;8.90;;;;;;;;;;5052678;28;20029;-61
2023/05/29 03:04:17;;;;;;;23.10;9.02;;;;;;;;;;5052144;28;20504;-61
2023/05/29 03:06:43;;;;;;;27.85;7.55;;;;;;;;;;5051377;28;20086;-61
2023/05/29 03:09:09;;;;;;;21.92;7.60;;;;;;;;;;5052710;28;20485;-61
2023/05/29 03:11:35;;;;;;;25.90;7.35;;;;;;;;;;5052454;28;20032;-61
2023/05/29 03:14:02;;;;;;;23.25;7.63;;;;;;;;;;5052023;28;20109;-58
2023/05/29 03:16:29;;;;;;;24.45;7.93;;;;;;;;;;5051017;28;20033;-61
2023/05/29 03:18:55;;;;;;;21.55;7.20;;;;;;;;;;5052344;28;20063;-61
2023/05/29 03:21:21;;;;;;;21.13;7.40;;;;;;;;;;5052259;28;20112;-59
2023/05/29 03:23:47;;;;;;;23.80;7.53;;;;;;;;;;5052196;28;20090;-61
2023/05/29 03:26:13;;;;;;;21.42;7.22;;;;;;;;;;5051777;28;20686;-60
2023/05/29 03:28:39;;;;;;;23.50;7.43;;;;;;;;;;5052308;28;20071;-61
2023/05/29 03:31:05;;;;;;;22.77;8.13;;;;;;;;;;5051671;28;20108;-61
2023/05/29 03:33:31;;;;;;;22.90;7.50;;;;;;;;;;5050792;28;20275;-60
2023/05/29 03:35:57;;;;;;;20.20;7.72;;;;;;;;;;5051377;28;20032;-61
2023/05/29 03:38:24;;;;;;;21.10;8.02;;;;;;;;;;5052121;28;20102;-61
2023/05/29 03:40:50;;;;;;;23.50;8.52;;;;;;;;;;5051900;28;20604;-62
2023/05/29 03:43:16;;;;;;;26.33;8.10;;;;;;;;;;5051835;28;20059;-62
2023/05/29 03:45:42;;;;;;;23.60;7.95;;;;;;;;;;5050947;28;20029;-62
2023/05/29 03:48:08;;;;;;;25.17;7.75;;;;;;;;;;5051745;28;20024;-61
2023/05/29 03:50:34;;;;;;;23.25;8.93;;;;;;;;;;5051953;28;20017;-60
2023/05/29 03:53:00;;;;;;;21.58;9.40;;;;;;;;;;5051877;28;20100;-59
2023/05/29 03:55:26;;;;;;;20.70;8.20;;;;;;;;;;5051147;28;20079;-60
2023/05/29 03:57:52;;;;;;;25.02;7.45;;;;;;;;;;5051907;28;20036;-61
2023/05/29 04:00:18;;;;;;;26.73;8.85;;;;;;;;;;5051777;28;20547;-61
2023/05/29 04:02:44;;;;;;;24.98;7.97;;;;;;;;;;5051720;28;20029;-62
2023/05/29 04:05:12;;;;;;;21.55;7.53;;;;;;;;;;5049569;28;20448;-62
2023/05/29 04:07:38;;;;;;;21.10;8.63;;;;;;;;;;5051642;28;20032;-62
2023/05/29 04:10:06;;;;;;;20.48;8.10;;;;;;;;;;5051658;28;20025;-59
2023/05/29 04:12:32;;;;;;;31.50;8.82;;;;;;;;;;5050196;28;20393;-62
2023/05/29 04:14:58;;;;;;;23.00;7.65;;;;;;;;;;5050852;28;20036;-61
2023/05/29 04:17:24;;;;;;;23.00;8.15;;;;;;;;;;5051559;28;20033;-60
2023/05/29 04:19:50;;;;;;;23.70;7.80;;;;;;;;;;5051498;28;20376;-56
2023/05/29 04:22:16;;;;;;;24.42;8.98;;;;;;;;;;5051567;28;20029;-62
2023/05/29 04:24:42;;;;;;;23.85;8.02;;;;;;;;;;5049566;28;20082;-60
2023/05/29 04:27:12;;;;;;;18.38;7.90;;;;;;;;;;5050272;28;20396;-61
2023/05/29 04:29:42;;;;;;;24.05;8.45;;;;;;;;;;5050298;28;20025;-62
2023/05/29 04:32:09;;;;;;;24.77;8.70;;;;;;;;;;5051298;28;20029;-62
2023/05/29 04:34:35;;;;;;;26.75;9.02;;;;;;;;;;5050640;28;20385;-60
2023/05/29 04:37:05;;;;;;;20.13;7.75;;;;;;;;;;5051339;28;20033;-61
2023/05/29 04:39:31;;;;;;;21.67;8.38;;;;;;;;;;5051483;28;20369;-60
2023/05/29 04:42:01;;;;;;;26.10;8.57;;;;;;;;;;5051154;28;20033;-61
2023/05/29 04:44:28;;;;;;;28.40;8.57;;;;;;;;;;5049180;28;20051;-62
2023/05/29 04:46:56;;;;;;;22.00;8.25;;;;;;;;;;5051340;28;20483;-61
2023/05/29 04:49:22;;;;;;;22.17;9.30;;;;;;;;;;5050093;28;20063;-61
2023/05/29 04:51:52;;;;;;;21.83;9.60;;;;;;;;;;5051002;28;20028;-59
2023/05/29 04:54:19;;;;;;;25.48;8.20;;;;;;;;;;5049131;28;20484;-61
2023/05/29 04:56:46;;;;;;;21.70;9.07;;;;;;;;;;5049493;28;20381;-59
2023/05/29 04:59:12;;;;;;;24.73;9.90;;;;;;;;;;5050009;28;20032;-62
2023/05/29 05:01:38;;;;;;;26.60;9.45;;;;;;;;;;5051131;28;20392;-60
2023/05/29 05:04:05;;;;;;;25.48;9.07;;;;;;;;;;5050761;28;20039;-62
2023/05/29 05:06:31;;;;;;;33.10;12.57;;;;;;;;;;5050805;28;20053;-62
2023/05/29 05:08:57;;;;;;;22.67;9.35;;;;;;;;;;5050985;28;20028;-61
2023/05/29 05:11:24;;;;;;;22.70;9.43;;;;;;;;;;5051061;28;20385;-59
2023/05/29 05:13:50;;;;;;;25.85;10.45;;;;;;;;;;5050851;28;20056;-61
2023/05/29 05:16:18;;;;;;;21.88;8.98;;;;;;;;;;5049274;28;20417;-61
2023/05/29 05:18:44;;;;;;;21.10;8.27;;;;;;;;;;5050802;28;20028;-61
2023/05/29 05:21:10;;;;;;;26.83;9.38;;;;;;;;;;5050867;28;20493;-61
2023/05/29 05:23:36;;;;;;;27.77;13.25;;;;;;;;;;5051121;28;20025;-62
2023/05/29 05:26:02;;;;;;;28.13;9.30;;;;;;;;;;5051051;28;20021;-61
2023/05/29 05:28:28;;;;;;;21.92;8.63;;;;;;;;;;5040626;28;20021;-58
2023/05/29 05:30:55;;;;;;;22.17;8.45;;;;;;;;;;5053316;28;20025;-61
2023/05/29 05:33:21;;;;;;;22.75;8.50;;;;;;;;;;5038615;28;20028;-61
2023/05/29 05:35:47;;;;;;;22.13;8.35;;;;;;;;;;5032189;28;20022;-59
2023/05/29 05:38:13;;;;;;;21.25;9.15;;;;;;;;;;5033079;28;20032;-61
2023/05/29 05:40:39;;;;;;;21.50;9.02;;;;;;;;;;5033102;28;20383;-58
2023/05/29 05:43:06;;;;;;;24.70;10.93;;;;;;;;;;5034399;28;20022;-61
2023/05/29 05:45:32;;;;;;;21.08;8.80;;;;;;;;;;5033513;28;20017;-60
2023/05/29 05:47:58;;;;;;;20.27;8.18;;;;;;;;;;5034415;28;20013;-62
2023/05/29 05:50:24;;;;;;;23.10;9.77;;;;;;;;;;5034194;28;20436;-61
2023/05/29 05:52:50;;;;;;;26.23;12.70;;;;;;;;;;5034090;28;20033;-61
2023/05/29 05:55:17;;;;;;;21.77;9.68;;;;;;;;;;5033543;28;20028;-60
2023/05/29 05:57:42;;;;;;;27.63;11.30;;;;;;;;;;5033942;28;20025;-61
2023/05/29 06:00:12;;;;;;;24.27;9.85;;;;;;;;;;5042323;28;20052;-61
2023/05/29 06:02:38;;;;;;;22.15;9.48;;;;;;;;;;5041229;28;20082;-61
2023/05/29 06:05:07;;;;;;;25.10;9.25;;;;;;;;;;5038399;28;20077;-61
2023/05/29 06:07:33;;;;;;;33.67;13.65;;;;;;;;;;5045473;28;20035;-62
2023/05/29 06:09:59;;;;;;;25.90;9.77;;;;;;;;;;5050882;28;20108;-61
2023/05/29 06:12:25;;;;;;;22.88;9.38;;;;;;;;;;5045295;28;20029;-62
2023/05/29 06:14:51;;;;;;;23.70;9.13;;;;;;;;;;5053054;28;20074;-61
2023/05/29 06:17:17;;;;;;;25.80;9.68;;;;;;;;;;5052283;28;20094;-61
2023/05/29 06:19:43;;;;;;;21.73;10.07;;;;;;;;;;5053489;28;20025;-61
2023/05/29 06:22:09;;;;;;;27.35;10.07;;;;;;;;;;5051005;28;20048;-61
2023/05/29 06:24:35;;;;;;;23.48;9.60;;;;;;;;;;5044217;28;20032;-61
2023/05/29 06:27:01;;;;;;;29.08;11.07;;;;;;;;;;5053444;28;20477;-61
2023/05/29 06:29:27;;;;;;;22.40;9.40;;;;;;;;;;5042256;28;20033;-60
2023/05/29 06:31:53;;;;;;;23.92;9.07;;;;;;;;;;5050003;28;20069;-61
2023/05/29 06:34:19;;;;;;;25.65;11.48;;;;;;;;;;5032429;28;20049;-62
2023/05/29 06:36:45;;;;;;;20.35;9.63;;;;;;;;;;5043743;28;20033;-60
2023/05/29 06:39:12;;;;;;;26.20;9.50;;;;;;;;;;5052249;28;20144;-58
2023/05/29 06:41:37;;;;;;;26.48;10.98;;;;;;;;;;5052934;28;20384;-61
2023/05/29 06:44:04;;;;;;;20.92;9.45;;;;;;;;;;5030610;28;20112;-63
2023/05/29 06:46:30;;;;;;;23.52;12.50;;;;;;;;;;5041549;28;20053;-62
2023/05/29 06:48:56;;;;;;;24.88;10.85;;;;;;;;;;5045526;28;20104;-62
2023/05/29 06:51:22;;;;;;;25.98;9.90;;;;;;;;;;5044353;28;20553;-61
2023/05/29 06:53:48;;;;;;;22.27;9.80;;;;;;;;;;5051463;28;20503;-60
2023/05/29 06:56:14;;;;;;;21.55;9.13;;;;;;;;;;5052276;28;20029;-59
2023/05/29 06:58:40;;;;;;;25.45;9.45;;;;;;;;;;5051843;28;20021;-62
2023/05/29 07:01:06;;;;;;;25.90;9.77;;;;;;;;;;5052704;28;20044;-61
2023/05/29 07:03:33;;;;;;;25.13;9.13;;;;;;;;;;5042866;28;20025;-61
2023/05/29 07:05:59;;;;;;;20.50;9.05;;;;;;;;;;5043393;28;20476;-62
2023/05/29 07:08:25;;;;;;;21.27;9.13;;;;;;;;;;5046756;28;20111;-61
2023/05/29 07:10:51;;;;;;;22.45;9.82;;;;;;;;;;5043182;28;20488;-61
2023/05/29 07:13:17;;;;;;;20.38;9.35;;;;;;;;;;5052745;28;20025;-62
2023/05/29 07:15:44;;;;;;;20.15;8.85;;;;;;;;;;5051939;28;20504;-60
2023/05/29 07:18:10;;;;;;;23.50;8.68;;;;;;;;;;5052668;28;20427;-61
2023/05/29 07:20:36;;;;;;;21.58;9.10;;;;;;;;;;5052828;28;20112;-61
2023/05/29 07:23:03;;;;;;;31.75;10.45;;;;;;;;;;5052771;28;20021;-62
2023/05/29 07:25:29;;;;;;;23.20;9.75;;;;;;;;;;5051506;28;20029;-62
2023/05/29 07:27:55;;;;;;;21.35;9.77;;;;;;;;;;5052122;28;20448;-62
2023/05/29 07:30:21;;;;;;;22.67;10.35;;;;;;;;;;5039697;28;20505;-62
2023/05/29 07:32:47;;;;;;;23.65;9.85;;;;;;;;;;5047421;28;20549;-62
2023/05/29 07:35:13;;;;;;;19.45;9.63;;;;;;;;;;5046968;28;20052;-60
2023/05/29 07:37:39;;;;;;;19.60;10.07;;;;;;;;;;5032856;28;20033;-61
2023/05/29 07:40:06;;;;;;;22.17;10.00;;;;;;;;;;5032943;28;20051;-60
2023/05/29 07:42:32;;;;;;;21.05;9.35;;;;;;;;;;5032709;28;20053;-59
2023/05/29 07:44:58;;;;;;;17.17;9.30;;;;;;;;;;5031993;28;20096;-60
2023/05/29 07:47:24;;;;;;;21.92;9.77;;;;;;;;;;5031732;28;20471;-60
2023/05/29 07:49:51;;;;;;;21.08;10.15;;;;;;;;;;5031786;28;20029;-58
2023/05/29 07:52:18;;;;;;;18.33;10.15;;;;;;;;;;5031995;28;20045;-60
2023/05/29 07:54:44;;;;;;;21.00;10.40;;;;;;;;;;5046714;28;20120;-58
2023/05/29 07:57:10;;;;;;;24.15;10.38;;;;;;;;;;5031630;28;20125;-60
2023/05/29 07:59:36;;;;;;;21.48;10.75;;;;;;;;;;5031819;28;20446;-57
2023/05/29 08:02:03;;;;;;;19.42;9.70;;;;;;;;;;5032004;28;20029;-57
2023/05/29 08:04:30;;;;;;;27.70;11.73;;;;;;;;;;5031007;28;20040;-59
2023/05/29 08:06:56;;;;;;;19.95;9.85;;;;;;;;;;5032114;28;20107;-59
2023/05/29 08:09:23;;;;;;;26.15;10.68;;;;;;;;;;5031617;28;20456;-58
2023/05/29 08:11:49;;;;;;;21.55;10.73;;;;;;;;;;5031536;28;20075;-59
2023/05/29 08:14:15;;;;;;;21.77;10.43;;;;;;;;;;5030725;28;20037;-60
2023/05/29 08:16:41;;;;;;;24.08;11.93;;;;;;;;;;5031389;28;20095;-60
2023/05/29 08:19:08;;;;;;;28.95;11.15;;;;;;;;;;5031133;28;20440;-59
2023/05/29 08:21:34;;;;;;;25.10;11.65;;;;;;;;;;5031045;28;20382;-61
2023/05/29 08:24:00;;;;;;;21.73;10.85;;;;;;;;;;5030869;28;20030;-59
2023/05/29 08:26:27;;;;;;;20.48;10.50;;;;;;;;;;5032683;28;20469;-56
2023/05/29 08:28:54;;;;;;;22.13;10.45;;;;;;;;;;5030046;28;20025;-56
2023/05/29 08:31:20;;;;;;;21.90;10.02;;;;;;;;;;5030080;28;20030;-60
2023/05/29 08:33:46;;;;;;;21.77;9.98;;;;;;;;;;5030759;28;20048;-57
2023/05/29 08:36:12;;;;;;;24.10;11.35;;;;;;;;;;5029484;28;20389;-58
2023/05/29 08:38:38;;;;;;;24.85;11.63;;;;;;;;;;5030888;28;20057;-60
2023/05/29 08:41:05;;;;;;;21.00;11.05;;;;;;;;;;5031329;28;20086;-59
2023/05/29 08:43:31;;;;;;;23.23;11.43;;;;;;;;;;5039826;28;20071;-59
2023/05/29 08:46:00;;;;;;;19.50;10.40;;;;;;;;;;5033372;28;20022;-61
2023/05/29 08:48:27;;;;;;;23.77;11.65;;;;;;;;;;5010165;28;20030;-60
2023/05/29 08:50:54;;;;;;;19.65;11.13;;;;;;;;;;5011469;28;20026;-59
2023/05/29 08:53:21;;;;;;;23.35;11.40;;;;;;;;;;5010037;28;20033;-56
2023/05/29 08:55:48;;;;;;;19.77;11.25;;;;;;;;;;5010619;28;20045;-58
2023/05/29 08:58:15;;;;;;;22.40;11.32;;;;;;;;;;5010029;28;20490;-56
2023/05/29 09:00:41;;;;;;;22.25;10.98;;;;;;;;;;5014392;28;20017;-58
2023/05/29 09:03:07;;;;;;;24.38;11.25;;;;;;;;;;5015163;28;20490;-59
2023/05/29 09:05:39;;;;;;;24.35;11.20;;;;;;;;;;5013246;28;20064;-60
2023/05/29 09:08:05;;;;;;;20.27;11.25;;;;;;;;;;5010391;28;20120;-61
2023/05/29 09:10:31;;;;;;;21.67;11.52;;;;;;;;;;5013285;28;20534;-57
2023/05/29 09:12:58;;;;;;;24.33;11.48;;;;;;;;;;5012334;28;20045;-60
2023/05/29 09:15:24;;;;;;;24.33;12.65;;;;;;;;;;5015644;28;20433;-61
2023/05/29 09:17:51;;;;;;;20.58;11.77;;;;;;;;;;5015410;28;20069;-60
2023/05/29 09:20:18;;;;;;;22.98;11.93;;;;;;;;;;5013045;28;20474;-60
2023/05/29 09:22:53;;;;;;;23.90;13.30;;;;;;;;;;5014877;28;20057;-60
2023/05/29 09:25:22;;;;;;;23.27;12.45;;;;;;;;;;5014469;28;20036;-59
2023/05/29 09:27:48;;;;;;;21.73;12.02;;;;;;;;;;5013849;28;20065;-58
2023/05/29 09:30:30;;;;;;;23.65;13.00;;;;;;;;;;5024860;28;20025;-56
2023/05/29 09:32:57;;;;;;;24.25;12.10;;;;;;;;;;5034368;28;20036;-58
2023/05/29 09:35:23;;;;;;;22.65;12.10;;;;;;;;;;5033785;28;20029;-59
2023/05/29 09:37:50;;;;;;;20.60;11.68;;;;;;;;;;5034471;28;20029;-61
2023/05/29 09:40:16;;;;;;;21.92;11.68;;;;;;;;;;5034523;28;20060;-59
2023/05/29 09:42:42;;;;;;;22.33;12.23;;;;;;;;;;5034373;28;20052;-59
2023/05/29 09:45:08;;;;;;;23.05;12.68;;;;;;;;;;5033686;28;20033;-60
2023/05/29 09:47:35;;;;;;;26.40;12.65;;;;;;;;;;5034066;28;20036;-57
2023/05/29 09:50:01;;;;;;;24.38;12.32;;;;;;;;;;5035155;28;20025;-60
2023/05/29 09:52:30;;;;;;;21.95;12.80;;;;;;;;;;5051046;28;20032;-58
2023/05/29 09:54:56;;;;;;;19.55;12.25;;;;;;;;;;5034571;28;20026;-60
2023/05/29 09:57:23;;;;;;;23.45;13.18;;;;;;;;;;5033532;28;20715;-59
2023/05/29 09:59:51;;;;;;;30.52;22.25;;;;;;;;;;5048251;28;20128;-57
2023/05/29 10:02:18;;;;;;;21.17;12.37;;;;;;;;;;5033864;28;20029;-56
2023/05/29 10:04:44;;;;;;;24.40;12.93;;;;;;;;;;5038766;28;20409;-58
2023/05/29 10:07:21;;;;;;;25.10;12.88;;;;;;;;;;5045400;28;20117;-61
2023/05/29 10:09:50;;;;;;;21.17;12.02;;;;;;;;;;5043357;28;20021;-60
2023/05/29 10:12:20;;;;;;;22.15;12.35;;;;;;;;;;5044459;28;20049;-59
2023/05/29 10:14:47;;;;;;;23.10;12.82;;;;;;;;;;5033286;28;20021;-61
2023/05/29 10:17:14;;;;;;;21.30;12.05;;;;;;;;;;5041692;28;20026;-60
2023/05/29 10:19:42;;;;;;;19.83;12.23;;;;;;;;;;5042102;28;20132;-60
2023/05/29 10:22:09;;;;;;;23.65;14.25;;;;;;;;;;5045194;28;20086;-61
2023/05/29 10:24:37;;;;;;;21.95;13.13;;;;;;;;;;5047220;28;20033;-60
2023/05/29 10:27:03;;;;;;;21.10;13.50;;;;;;;;;;5042497;28;20083;-60
2023/05/29 10:29:43;;;;;;;22.50;13.30;;;;;;;;;;5041218;28;20030;-58
2023/05/29 10:32:18;;;;;;;22.60;13.20;;;;;;;;;;5046536;28;20405;-61
2023/05/29 10:34:45;;;;;;;19.38;12.93;;;;;;;;;;5032201;28;20128;-59
2023/05/29 10:37:19;;;;;;;21.00;13.10;;;;;;;;;;5032740;28;20084;-59
2023/05/29 10:39:45;;;;;;;22.27;12.98;;;;;;;;;;5031723;28;20385;-59
2023/05/29 10:42:41;;;;;;;21.90;12.20;;;;;;;;;;5032697;28;20040;-60
2023/05/29 10:45:08;;;;;;;23.08;13.52;;;;;;;;;;5031679;28;20389;-61
2023/05/29 10:47:34;;;;;;;23.10;13.00;;;;;;;;;;5032900;28;20689;-61
2023/05/29 10:50:00;;;;;;;22.50;12.73;;;;;;;;;;5031517;28;20030;-61
2023/05/29 10:52:27;;;;;;;23.13;12.60;;;;;;;;;;5031588;28;20018;-59
2023/05/29 10:54:54;;;;;;;22.52;13.18;;;;;;;;;;5030767;28;20017;-59
2023/05/29 10:57:24;;;;;;;20.10;12.40;;;;;;;;;;5032905;28;20036;-58
2023/05/29 11:00:00;;;;;;;22.40;14.25;;;;;;;;;;5031712;28;20057;-63
2023/05/29 11:02:26;;;;;;;22.30;12.43;;;;;;;;;;5032994;28;20493;-59
2023/05/29 11:05:05;;;;;;;23.15;12.50;;;;;;;;;;5032225;28;20057;-61
2023/05/29 11:07:55;;;;;;;21.33;12.50;;;;;;;;;;5032781;28;20021;-59
2023/05/29 11:10:41;;;;;;;20.13;12.73;;;;;;;;;;5022717;28;20034;-58
2023/05/29 11:13:07;;;;;;;20.35;12.25;;;;;;;;;;5032661;28;20045;-61
2023/05/29 11:15:33;;;;;;;22.85;14.38;;;;;;;;;;5032134;28;20465;-57
2023/05/29 11:18:09;;;;;;;21.80;13.48;;;;;;;;;;5032359;28;20033;-60
2023/05/29 11:20:49;;;;;;;22.88;13.65;;;;;;;;;;5032423;28;20026;-60
2023/05/29 11:23:17;;;;;;;23.08;13.90;;;;;;;;;;5031540;28;20033;-55
2023/05/29 11:25:44;;;;;;;23.17;13.88;;;;;;;;;;5030767;28;20029;-60
2023/05/29 11:28:11;;;;;;;21.67;14.07;;;;;;;;;;5040313;28;20405;-57
2023/05/29 11:30:43;;;;;;;22.85;13.82;;;;;;;;;;5038677;28;20026;-58
2023/05/29 11:33:16;;;;;;;19.52;12.98;;;;;;;;;;5049216;28;20029;-59
2023/05/29 11:35:42;;;;;;;20.88;14.82;;;;;;;;;;5032744;28;20533;-62
2023/05/29 11:38:08;;;;;;;21.20;14.15;;;;;;;;;;5033214;28;20037;-61
2023/05/29 11:40:40;;;;;;;20.08;13.25;;;;;;;;;;5032335;28;20033;-62
2023/05/29 11:43:06;;;;;;;20.73;13.20;;;;;;;;;;5032019;28;20033;-61
2023/05/29 11:45:36;;;;;;;22.80;14.35;;;;;;;;;;5031537;28;20107;-58
2023/05/29 11:48:03;;;;;;;20.45;13.18;;;;;;;;;;5031733;28;20018;-60
2023/05/29 11:50:30;;;;;;;22.40;14.37;;;;;;;;;;5031317;28;20100;-58
2023/05/29 11:52:57;;;;;;;21.45;14.25;;;;;;;;;;5031976;28;20021;-61
2023/05/29 11:55:23;;;;;;;22.00;14.05;;;;;;;;;;5030603;28;20025;-60
2023/05/29 11:57:50;;;;;;;21.92;13.95;;;;;;;;;;5031265;28;20025;-58
2023/05/29 12:00:17;;;;;;;21.23;14.10;;;;;;;;;;5030434;28;20073;-58
2023/05/29 12:02:43;;;;;;;18.83;13.75;;;;;;;;;;5031196;28;20489;-60
2023/05/29 12:05:12;;;;;;;18.83;13.77;;;;;;;;;;5030569;28;20374;-60
2023/05/29 12:07:38;;;;;;;19.85;15.20;;;;;;;;;;5031419;28;20029;-58
2023/05/29 12:10:14;;;;;;;22.48;14.82;;;;;;;;;;5030892;28;20041;-61
2023/05/29 12:12:40;;;;;;;21.00;14.95;;;;;;;;;;5031166;28;20362;-59
2023/05/29 12:15:09;;;;;;;23.17;13.60;;;;;;;;;;5030502;28;20028;-59
2023/05/29 12:17:36;;;;;;;17.50;12.85;;;;;;;;;;5031508;28;20487;-62
2023/05/29 12:20:08;;;;;;;20.05;14.15;;;;;;;;;;5030728;28;20109;-63
2023/05/29 12:22:35;;;;;;;20.15;13.38;;;;;;;;;;5030567;28;20022;-60
2023/05/29 12:25:24;;;;;;;18.98;13.00;;;;;;;;;;5029059;28;20148;-61
2023/05/29 12:27:50;;;;;;;18.35;12.82;;;;;;;;;;5025615;28;20042;-62
2023/05/29 12:30:19;;;;;;;19.38;13.02;;;;;;;;;;5018799;28;20097;-62
2023/05/29 12:32:46;;;;;;;18.42;13.32;;;;;;;;;;5075045;22;20037;-61
2023/05/29 12:35:13;;;;;;;22.10;13.55;;;;;;;;;;5050905;28;20029;-62
2023/05/29 12:38:02;;;;;;;21.00;13.50;;;;;;;;;;5054526;28;20021;-61
2023/05/29 12:40:36;;;;;;;20.17;13.52;;;;;;;;;;5044252;28;20065;-62
2023/05/29 12:43:06;;;;;;;19.15;12.57;;;;;;;;;;5054417;28;20033;-61
2023/05/29 12:45:33;;;;;;;19.98;13.60;;;;;;;;;;5055113;28;20029;-61
2023/05/29 12:48:07;;;;;;;20.75;15.07;;;;;;;;;;5054473;28;20123;-61
2023/05/29 12:50:33;;;;;;;19.75;13.32;;;;;;;;;;5054143;28;20500;-62
2023/05/29 12:53:02;;;;;;;21.10;14.02;;;;;;;;;;5054109;28;20060;-61
2023/05/29 12:55:29;;;;;;;17.73;12.95;;;;;;;;;;5055086;28;20021;-61
2023/05/29 12:57:55;;;;;;;20.17;12.93;;;;;;;;;;5054048;28;20496;-60
2023/05/29 13:00:23;;;;;;;18.33;13.13;;;;;;;;;;5053258;28;20029;-62
2023/05/29 13:02:49;;;;;;;22.40;14.02;;;;;;;;;;5055219;28;20032;-62
2023/05/29 13:05:16;;;;;;;20.52;13.30;;;;;;;;;;5053472;28;20037;-62
2023/05/29 13:07:43;;;;;;;20.38;13.68;;;;;;;;;;5055477;28;20028;-63
2023/05/29 13:10:09;;;;;;;20.75;13.25;;;;;;;;;;5054752;28;20512;-61
2023/05/29 13:12:36;;;;;;;22.35;13.98;;;;;;;;;;5053350;28;20021;-61
2023/05/29 13:15:02;;;;;;;21.65;13.57;;;;;;;;;;5052979;28;20029;-63
2023/05/29 13:17:28;;;;;;;21.10;14.00;;;;;;;;;;5053519;28;20029;-62
2023/05/29 13:19:54;;;;;;;19.80;13.40;;;;;;;;;;5054581;28;20032;-62
2023/05/29 13:22:20;;;;;;;20.83;13.70;;;;;;;;;;5054611;28;20025;-63
2023/05/29 13:24:46;;;;;;;21.20;14.27;;;;;;;;;;5053790;28;20469;-68
2023/05/29 13:27:16;;;;;;;22.58;13.65;;;;;;;;;;5054542;28;20029;-64
2023/05/29 13:29:43;;;;;;;21.13;14.32;;;;;;;;;;5053131;28;20024;-62
2023/05/29 13:32:09;;;;;;;19.60;13.25;;;;;;;;;;5054514;28;20094;-63
2023/05/29 13:34:35;;;;;;;19.40;13.88;;;;;;;;;;5053910;28;20021;-61
2023/05/29 13:37:01;;;;;;;21.05;13.73;;;;;;;;;;5054450;28;20140;-60
2023/05/29 13:39:28;;;;;;;24.02;16.35;;;;;;;;;;5055193;28;20511;-61
2023/05/29 13:41:54;;;;;;;19.05;14.20;;;;;;;;;;5054561;28;20032;-63
2023/05/29 13:44:20;;;;;;;19.67;14.30;;;;;;;;;;5050748;28;20025;-60
2023/05/29 13:46:46;;;;;;;19.15;14.00;;;;;;;;;;5053455;28;20485;-63
2023/05/29 13:49:12;;;;;;;18.05;13.45;;;;;;;;;;5054198;28;20074;-63
2023/05/29 13:51:38;;;;;;;20.55;13.68;;;;;;;;;;5053189;28;20025;-63
2023/05/29 13:54:04;;;;;;;19.83;13.43;;;;;;;;;;5054881;28;20021;-63
2023/05/29 13:56:31;;;;;;;19.70;14.40;;;;;;;;;;5055225;28;20413;-61
2023/05/29 13:59:04;;;;;;;21.88;14.75;;;;;;;;;;5052673;28;20051;-63
2023/05/29 14:01:30;;;;;;;20.00;13.80;;;;;;;;;;5053698;28;20102;-65
2023/05/29 14:03:56;;;;;;;22.55;14.98;;;;;;;;;;5052860;28;20102;-64
2023/05/29 14:06:22;;;;;;;19.13;13.88;;;;;;;;;;5053368;28;20028;-65
2023/05/29 14:08:48;;;;;;;20.75;14.35;;;;;;;;;;5053233;28;20019;-65
2023/05/29 14:11:14;;;;;;;19.67;13.40;;;;;;;;;;5053306;28;20017;-65
2023/05/29 14:13:40;;;;;;;19.92;14.15;;;;;;;;;;5053764;28;20433;-66
2023/05/29 14:16:06;;;;;;;22.65;14.25;;;;;;;;;;5052586;28;20095;-66
2023/05/29 14:18:32;;;;;;;21.23;14.00;;;;;;;;;;5053448;28;20048;-66
2023/05/29 14:20:58;;;;;;;22.45;13.90;;;;;;;;;;5053434;28;20099;-66
2023/05/29 14:23:24;;;;;;;21.02;14.18;;;;;;;;;;5051366;28;20798;-64